THY4AP LTFM-LTAC
Flight info
| Callsign | THY4AP |
|---|---|
| Flight time | 0h 45m |
| Altitude | 27000 |
| Route | VICEN1E/36 VICEN T380 ASMAP L333 LATGA |
| Aircraft | A320/M-SDE3FGHIRWY/LB1 |
Departure
| Time | 2026-05-06 19:07 |
|---|---|
| Airport | İstanbul Airport (LTFM) |
Arrival
| Time | 2026-05-06 19:53 |
|---|---|
| Airport | Esenboğa International Airport (LTAC) |
| Time | Latitude | Longitude | Altitude | Speed | Heading |
|---|---|---|---|---|---|
| 2026-05-06 18:36 | 41.26037 | 28.74966 | 330 ft | 0 kts | 250° |
| 2026-05-06 18:56 | 41.26037 | 28.74967 | 334 ft | 2 kts | 250° |
| 2026-05-06 18:56 | 41.26045 | 28.74999 | 332 ft | 4 kts | 258° |
| 2026-05-06 18:56 | 41.26048 | 28.75034 | 332 ft | 4 kts | 278° |
| 2026-05-06 18:57 | 41.26039 | 28.75062 | 331 ft | 3 kts | 336° |
| 2026-05-06 18:57 | 41.26035 | 28.75064 | 330 ft | 0 kts | 341° |
| 2026-05-06 19:00 | 41.26036 | 28.75064 | 334 ft | 0 kts | 341° |
| 2026-05-06 19:01 | 41.26039 | 28.75062 | 331 ft | 1 kts | 340° |
| 2026-05-06 19:01 | 41.26055 | 28.75055 | 331 ft | 3 kts | 340° |
| 2026-05-06 19:01 | 41.26085 | 28.75041 | 336 ft | 6 kts | 340° |
| 2026-05-06 19:01 | 41.26128 | 28.75021 | 333 ft | 8 kts | 341° |
| 2026-05-06 19:02 | 41.26185 | 28.74996 | 330 ft | 10 kts | 345° |
| 2026-05-06 19:02 | 41.26239 | 28.75041 | 332 ft | 11 kts | 74° |
| 2026-05-06 19:02 | 41.26244 | 28.75154 | 334 ft | 13 kts | 89° |
| 2026-05-06 19:02 | 41.26246 | 28.75287 | 334 ft | 14 kts | 88° |
| 2026-05-06 19:03 | 41.26248 | 28.75413 | 334 ft | 13 kts | 89° |
| 2026-05-06 19:03 | 41.26249 | 28.75509 | 334 ft | 10 kts | 89° |
| 2026-05-06 19:03 | 41.26249 | 28.75514 | 334 ft | 0 kts | 89° |
| 2026-05-06 19:05 | 41.26249 | 28.75520 | 334 ft | 2 kts | 89° |
| 2026-05-06 19:05 | 41.26250 | 28.75552 | 334 ft | 5 kts | 89° |
| 2026-05-06 19:05 | 41.26251 | 28.75611 | 334 ft | 8 kts | 89° |
| 2026-05-06 19:06 | 41.26278 | 28.75661 | 334 ft | 8 kts | 19° |
| 2026-05-06 19:06 | 41.26303 | 28.75664 | 333 ft | 0 kts | 1° |
| 2026-05-06 19:06 | 41.26364 | 28.75664 | 334 ft | 36 kts | 359° |
| 2026-05-06 19:07 | 41.26851 | 28.75655 | 332 ft | 101 kts | 359° |
| 2026-05-06 19:07 | 41.27726 | 28.75639 | 331 ft | 148 kts | 359° |
| 2026-05-06 19:07 | 41.28839 | 28.75616 | 702 ft | 161 kts | 359° |
| 2026-05-06 19:07 | 41.29954 | 28.75742 | 1269 ft | 168 kts | 27° |
| 2026-05-06 19:08 | 41.30845 | 28.76724 | 1912 ft | 167 kts | 43° |
| 2026-05-06 19:08 | 41.31786 | 28.77687 | 2313 ft | 180 kts | 30° |
| 2026-05-06 19:08 | 41.32936 | 28.78576 | 2547 ft | 203 kts | 28° |
| 2026-05-06 19:08 | 41.34247 | 28.79541 | 2863 ft | 227 kts | 27° |
| 2026-05-06 19:09 | 41.35706 | 28.80608 | 3257 ft | 251 kts | 27° |
| 2026-05-06 19:09 | 41.37245 | 28.81808 | 3975 ft | 261 kts | 35° |
| 2026-05-06 19:09 | 41.38327 | 28.83774 | 4804 ft | 274 kts | 69° |
| 2026-05-06 19:09 | 41.38668 | 28.86297 | 5655 ft | 280 kts | 83° |
| 2026-05-06 19:10 | 41.38717 | 28.88910 | 6536 ft | 285 kts | 89° |
| 2026-05-06 19:10 | 41.38194 | 28.91481 | 7312 ft | 295 kts | 119° |
| 2026-05-06 19:10 | 41.36829 | 28.93492 | 8096 ft | 302 kts | 144° |
| 2026-05-06 19:10 | 41.34906 | 28.94612 | 8881 ft | 306 kts | 171° |
| 2026-05-06 19:11 | 41.32777 | 28.94807 | 9665 ft | 308 kts | 179° |
| 2026-05-06 19:11 | 41.30618 | 28.94861 | 10383 ft | 313 kts | 180° |
| 2026-05-06 19:11 | 41.28362 | 28.94883 | 10643 ft | 336 kts | 180° |
| 2026-05-06 19:11 | 41.25945 | 28.94898 | 10795 ft | 359 kts | 180° |
| 2026-05-06 19:12 | 41.23369 | 28.94826 | 10999 ft | 377 kts | 183° |
| 2026-05-06 19:12 | 41.20721 | 28.94614 | 11538 ft | 384 kts | 185° |
| 2026-05-06 19:12 | 41.18043 | 28.94328 | 12165 ft | 388 kts | 186° |
| 2026-05-06 19:12 | 41.15343 | 28.94019 | 12809 ft | 391 kts | 186° |
| 2026-05-06 19:13 | 41.12620 | 28.93714 | 13457 ft | 395 kts | 185° |
| 2026-05-06 19:13 | 41.09868 | 28.93425 | 14078 ft | 398 kts | 185° |
| 2026-05-06 19:13 | 41.07094 | 28.93155 | 14628 ft | 401 kts | 185° |
| 2026-05-06 19:13 | 41.04300 | 28.92898 | 15163 ft | 404 kts | 185° |
| 2026-05-06 19:14 | 41.01480 | 28.92645 | 15689 ft | 408 kts | 185° |
| 2026-05-06 19:14 | 40.98633 | 28.92502 | 16205 ft | 412 kts | 176° |
| 2026-05-06 19:14 | 40.95829 | 28.93313 | 16710 ft | 416 kts | 158° |
| 2026-05-06 19:14 | 40.93327 | 28.95215 | 17214 ft | 417 kts | 139° |
| 2026-05-06 19:15 | 40.91371 | 28.98030 | 17739 ft | 416 kts | 121° |
| 2026-05-06 19:15 | 40.90132 | 29.01466 | 18251 ft | 414 kts | 103° |
| 2026-05-06 19:15 | 40.89424 | 29.05164 | 18722 ft | 416 kts | 100° |
| 2026-05-06 19:15 | 40.88756 | 29.08894 | 19190 ft | 419 kts | 99° |
| 2026-05-06 19:16 | 40.88094 | 29.12657 | 19681 ft | 421 kts | 99° |
| 2026-05-06 19:16 | 40.87438 | 29.16443 | 20170 ft | 424 kts | 99° |
| 2026-05-06 19:16 | 40.86804 | 29.20205 | 20641 ft | 427 kts | 99° |
| 2026-05-06 19:16 | 40.86171 | 29.24046 | 21087 ft | 429 kts | 99° |
| 2026-05-06 19:17 | 40.85538 | 29.27914 | 21542 ft | 432 kts | 99° |
| 2026-05-06 19:17 | 40.84902 | 29.31801 | 21979 ft | 434 kts | 99° |
| 2026-05-06 19:17 | 40.84258 | 29.35714 | 22397 ft | 437 kts | 99° |
| 2026-05-06 19:17 | 40.83604 | 29.39652 | 22831 ft | 440 kts | 99° |
| 2026-05-06 19:18 | 40.82943 | 29.43613 | 23234 ft | 443 kts | 99° |
| 2026-05-06 19:18 | 40.82277 | 29.47593 | 23636 ft | 445 kts | 99° |
| 2026-05-06 19:18 | 40.81604 | 29.51595 | 23967 ft | 448 kts | 99° |
| 2026-05-06 19:18 | 40.80924 | 29.55618 | 24316 ft | 450 kts | 99° |
| 2026-05-06 19:19 | 40.80240 | 29.59658 | 24662 ft | 452 kts | 99° |
| 2026-05-06 19:19 | 40.79554 | 29.63713 | 24997 ft | 454 kts | 99° |
| 2026-05-06 19:19 | 40.78862 | 29.67788 | 25320 ft | 456 kts | 99° |
| 2026-05-06 19:19 | 40.78164 | 29.71881 | 25661 ft | 458 kts | 99° |
| 2026-05-06 19:20 | 40.77461 | 29.75995 | 25972 ft | 461 kts | 99° |
| 2026-05-06 19:20 | 40.76753 | 29.80129 | 26293 ft | 464 kts | 99° |
| 2026-05-06 19:20 | 40.76039 | 29.84292 | 26632 ft | 466 kts | 99° |
| 2026-05-06 19:20 | 40.75566 | 29.87052 | 26874 ft | 466 kts | 99° |
| 2026-05-06 19:21 | 40.74604 | 29.92629 | 27072 ft | 468 kts | 100° |
| 2026-05-06 19:21 | 40.73879 | 29.96826 | 27083 ft | 470 kts | 100° |
| 2026-05-06 19:21 | 40.73150 | 30.01032 | 27117 ft | 471 kts | 100° |
| 2026-05-06 19:21 | 40.72421 | 30.05239 | 27106 ft | 471 kts | 100° |
| 2026-05-06 19:22 | 40.71688 | 30.09451 | 27111 ft | 471 kts | 100° |
| 2026-05-06 19:22 | 40.71203 | 30.12237 | 27123 ft | 471 kts | 100° |
| 2026-05-06 19:22 | 40.70468 | 30.16446 | 27111 ft | 471 kts | 100° |
| 2026-05-06 19:22 | 40.69732 | 30.20660 | 27113 ft | 471 kts | 100° |
| 2026-05-06 19:23 | 40.68757 | 30.26223 | 27108 ft | 470 kts | 100° |
| 2026-05-06 19:23 | 40.68257 | 30.29064 | 27101 ft | 470 kts | 100° |
| 2026-05-06 19:23 | 40.67278 | 30.34619 | 27097 ft | 470 kts | 100° |
| 2026-05-06 19:23 | 40.66779 | 30.37453 | 27097 ft | 470 kts | 100° |
| 2026-05-06 19:24 | 40.66038 | 30.41644 | 27100 ft | 470 kts | 101° |
| 2026-05-06 19:24 | 40.65293 | 30.45834 | 27094 ft | 470 kts | 101° |
| 2026-05-06 19:24 | 40.64547 | 30.50026 | 27091 ft | 470 kts | 101° |
| 2026-05-06 19:24 | 40.63798 | 30.54219 | 27089 ft | 470 kts | 101° |
| 2026-05-06 19:25 | 40.63052 | 30.58409 | 27086 ft | 470 kts | 101° |
| 2026-05-06 19:25 | 40.62304 | 30.62596 | 27087 ft | 470 kts | 101° |
| 2026-05-06 19:25 | 40.61554 | 30.66785 | 27086 ft | 470 kts | 101° |
| 2026-05-06 19:25 | 40.60803 | 30.70972 | 27085 ft | 470 kts | 101° |
| 2026-05-06 19:26 | 40.60051 | 30.75158 | 27089 ft | 470 kts | 101° |
| 2026-05-06 19:26 | 40.59298 | 30.79341 | 27089 ft | 470 kts | 101° |
| 2026-05-06 19:26 | 40.58541 | 30.83520 | 27088 ft | 470 kts | 101° |
| 2026-05-06 19:26 | 40.57782 | 30.87699 | 27086 ft | 470 kts | 101° |
| 2026-05-06 19:27 | 40.57035 | 30.91821 | 27090 ft | 470 kts | 101° |
| 2026-05-06 19:27 | 40.56278 | 30.95999 | 27097 ft | 470 kts | 101° |
| 2026-05-06 19:27 | 40.55518 | 31.00173 | 27094 ft | 470 kts | 101° |
| 2026-05-06 19:27 | 40.54754 | 31.04349 | 27091 ft | 470 kts | 101° |
| 2026-05-06 19:28 | 40.53980 | 31.08579 | 27094 ft | 470 kts | 101° |
| 2026-05-06 19:28 | 40.53224 | 31.12695 | 27092 ft | 470 kts | 101° |
| 2026-05-06 19:28 | 40.52451 | 31.16889 | 27091 ft | 470 kts | 101° |
| 2026-05-06 19:28 | 40.51680 | 31.21060 | 27097 ft | 470 kts | 101° |
| 2026-05-06 19:29 | 40.50907 | 31.25239 | 27110 ft | 470 kts | 101° |
| 2026-05-06 19:29 | 40.50135 | 31.29414 | 27103 ft | 471 kts | 101° |
| 2026-05-06 19:29 | 40.49358 | 31.33593 | 27106 ft | 471 kts | 101° |
| 2026-05-06 19:29 | 40.48578 | 31.37774 | 27110 ft | 471 kts | 101° |
| 2026-05-06 19:30 | 40.47795 | 31.41956 | 27113 ft | 472 kts | 101° |
| 2026-05-06 19:30 | 40.47007 | 31.46142 | 27113 ft | 472 kts | 101° |
| 2026-05-06 19:30 | 40.46207 | 31.50320 | 27108 ft | 472 kts | 102° |
| 2026-05-06 19:30 | 40.45537 | 31.54519 | 27116 ft | 469 kts | 93° |
| 2026-05-06 19:31 | 40.45203 | 31.58778 | 27115 ft | 469 kts | 92° |
| 2026-05-06 19:31 | 40.44877 | 31.63038 | 27113 ft | 469 kts | 92° |
| 2026-05-06 19:31 | 40.44218 | 31.71574 | 27108 ft | 470 kts | 93° |
| 2026-05-06 19:32 | 40.43881 | 31.75848 | 27106 ft | 470 kts | 93° |
| 2026-05-06 19:32 | 40.43537 | 31.80110 | 27100 ft | 470 kts | 93° |
| 2026-05-06 19:32 | 40.43191 | 31.84384 | 26861 ft | 471 kts | 93° |
| 2026-05-06 19:32 | 40.42844 | 31.88657 | 26616 ft | 471 kts | 93° |
| 2026-05-06 19:33 | 40.42495 | 31.92939 | 26366 ft | 472 kts | 93° |
| 2026-05-06 19:33 | 40.42145 | 31.97228 | 26116 ft | 473 kts | 93° |
| 2026-05-06 19:33 | 40.41794 | 32.01524 | 25868 ft | 474 kts | 93° |
| 2026-05-06 19:33 | 40.41440 | 32.05823 | 25621 ft | 474 kts | 93° |
| 2026-05-06 19:34 | 40.41084 | 32.10120 | 25379 ft | 474 kts | 93° |
| 2026-05-06 19:34 | 40.40733 | 32.14331 | 25135 ft | 464 kts | 94° |
| 2026-05-06 19:34 | 40.40382 | 32.18473 | 24893 ft | 450 kts | 94° |
| 2026-05-06 19:34 | 40.40041 | 32.22487 | 24655 ft | 437 kts | 94° |
| 2026-05-06 19:35 | 40.39711 | 32.26405 | 24430 ft | 429 kts | 94° |
| 2026-05-06 19:35 | 40.39386 | 32.30286 | 24195 ft | 427 kts | 94° |
| 2026-05-06 19:35 | 40.39060 | 32.34145 | 23972 ft | 424 kts | 94° |
| 2026-05-06 19:35 | 40.38735 | 32.37982 | 23740 ft | 422 kts | 94° |
| 2026-05-06 19:36 | 40.38262 | 32.41777 | 23472 ft | 422 kts | 101° |
| 2026-05-06 19:36 | 40.37388 | 32.45453 | 23189 ft | 423 kts | 110° |
| 2026-05-06 19:36 | 40.36127 | 32.48927 | 22923 ft | 423 kts | 118° |
| 2026-05-06 19:36 | 40.34521 | 32.52155 | 22627 ft | 422 kts | 124° |
| 2026-05-06 19:37 | 40.32802 | 32.55288 | 21941 ft | 423 kts | 124° |
| 2026-05-06 19:37 | 40.31091 | 32.58403 | 21502 ft | 416 kts | 124° |
| 2026-05-06 19:37 | 40.29425 | 32.61434 | 20729 ft | 406 kts | 124° |
| 2026-05-06 19:37 | 40.27789 | 32.64403 | 20353 ft | 401 kts | 125° |
| 2026-05-06 19:38 | 40.26149 | 32.67372 | 20259 ft | 403 kts | 125° |
| 2026-05-06 19:38 | 40.24506 | 32.70344 | 20079 ft | 403 kts | 125° |
| 2026-05-06 19:38 | 40.22867 | 32.73306 | 19890 ft | 402 kts | 125° |
| 2026-05-06 19:38 | 40.21233 | 32.76262 | 19712 ft | 400 kts | 124° |
| 2026-05-06 19:39 | 40.19899 | 32.79414 | 19514 ft | 395 kts | 105° |
| 2026-05-06 19:39 | 40.19605 | 32.82929 | 19333 ft | 388 kts | 82° |
| 2026-05-06 19:39 | 40.20365 | 32.86282 | 18697 ft | 385 kts | 58° |
| 2026-05-06 19:39 | 40.22100 | 32.88898 | 18142 ft | 378 kts | 36° |
| 2026-05-06 19:40 | 40.24294 | 32.90716 | 17599 ft | 373 kts | 27° |
| 2026-05-06 19:40 | 40.26610 | 32.92220 | 17041 ft | 370 kts | 25° |
| 2026-05-06 19:40 | 40.28910 | 32.93677 | 16593 ft | 365 kts | 25° |
| 2026-05-06 19:40 | 40.31163 | 32.95178 | 16122 ft | 362 kts | 29° |
| 2026-05-06 19:41 | 40.33252 | 32.96907 | 15765 ft | 356 kts | 33° |
| 2026-05-06 19:41 | 40.35278 | 32.98818 | 14970 ft | 362 kts | 36° |
| 2026-05-06 19:41 | 40.37282 | 33.00839 | 14333 ft | 364 kts | 38° |
| 2026-05-06 19:41 | 40.39274 | 33.02876 | 13751 ft | 363 kts | 38° |
| 2026-05-06 19:42 | 40.41276 | 33.04902 | 13061 ft | 363 kts | 38° |
| 2026-05-06 19:42 | 40.43286 | 33.06895 | 12362 ft | 363 kts | 37° |
| 2026-05-06 19:42 | 40.45309 | 33.08859 | 11939 ft | 356 kts | 37° |
| 2026-05-06 19:42 | 40.47296 | 33.10762 | 11431 ft | 352 kts | 36° |
| 2026-05-06 19:43 | 40.49275 | 33.12653 | 10889 ft | 350 kts | 37° |
| 2026-05-06 19:43 | 40.51228 | 33.14530 | 10556 ft | 342 kts | 37° |
| 2026-05-06 19:43 | 40.52945 | 33.16582 | 10432 ft | 327 kts | 54° |
| 2026-05-06 19:43 | 40.53901 | 33.19198 | 10306 ft | 312 kts | 78° |
| 2026-05-06 19:44 | 40.53952 | 33.21932 | 10134 ft | 290 kts | 103° |
| 2026-05-06 19:44 | 40.53159 | 33.24289 | 9664 ft | 280 kts | 129° |
| 2026-05-06 19:44 | 40.51680 | 33.25817 | 9419 ft | 264 kts | 159° |
| 2026-05-06 19:44 | 40.49955 | 33.26173 | 9284 ft | 245 kts | 188° |
| 2026-05-06 19:45 | 40.48326 | 33.25722 | 8948 ft | 237 kts | 195° |
| 2026-05-06 19:45 | 40.46748 | 33.25134 | 8521 ft | 234 kts | 196° |
| 2026-05-06 19:45 | 40.45195 | 33.24537 | 8135 ft | 233 kts | 197° |
| 2026-05-06 19:45 | 40.43650 | 33.23943 | 7999 ft | 231 kts | 197° |
| 2026-05-06 19:46 | 40.42102 | 33.23349 | 8013 ft | 232 kts | 197° |
| 2026-05-06 19:46 | 40.40553 | 33.22755 | 7972 ft | 230 kts | 197° |
| 2026-05-06 19:46 | 40.39019 | 33.22168 | 7682 ft | 230 kts | 197° |
| 2026-05-06 19:46 | 40.37502 | 33.21588 | 7391 ft | 230 kts | 197° |
| 2026-05-06 19:47 | 40.36000 | 33.20914 | 7210 ft | 225 kts | 209° |
| 2026-05-06 19:47 | 40.34711 | 33.19816 | 7055 ft | 218 kts | 214° |
| 2026-05-06 19:47 | 40.33458 | 33.18706 | 6799 ft | 217 kts | 214° |
| 2026-05-06 19:47 | 40.32208 | 33.17600 | 6552 ft | 216 kts | 214° |
| 2026-05-06 19:48 | 40.30980 | 33.16518 | 6432 ft | 208 kts | 212° |
| 2026-05-06 19:48 | 40.29746 | 33.15654 | 6288 ft | 196 kts | 210° |
| 2026-05-06 19:48 | 40.28606 | 33.14712 | 6046 ft | 192 kts | 215° |
| 2026-05-06 19:48 | 40.27507 | 33.13697 | 6009 ft | 194 kts | 216° |
| 2026-05-06 19:49 | 40.26417 | 33.12661 | 6009 ft | 194 kts | 216° |
| 2026-05-06 19:49 | 40.25325 | 33.11618 | 5882 ft | 194 kts | 217° |
| 2026-05-06 19:49 | 40.24238 | 33.10576 | 5656 ft | 193 kts | 217° |
| 2026-05-06 19:49 | 40.23154 | 33.09539 | 5407 ft | 193 kts | 217° |
| 2026-05-06 19:50 | 40.22082 | 33.08514 | 5172 ft | 183 kts | 217° |
| 2026-05-06 19:50 | 40.21123 | 33.07596 | 4931 ft | 161 kts | 217° |
| 2026-05-06 19:50 | 40.20244 | 33.06756 | 4681 ft | 153 kts | 217° |
| 2026-05-06 19:50 | 40.19395 | 33.05944 | 4473 ft | 150 kts | 217° |
| 2026-05-06 19:51 | 40.18556 | 33.05142 | 4250 ft | 149 kts | 217° |
| 2026-05-06 19:51 | 40.17732 | 33.04353 | 4031 ft | 149 kts | 217° |
| 2026-05-06 19:51 | 40.16902 | 33.03552 | 3846 ft | 148 kts | 216° |
| 2026-05-06 19:51 | 40.16066 | 33.02762 | 3673 ft | 148 kts | 216° |
| 2026-05-06 19:52 | 40.15233 | 33.01980 | 3454 ft | 147 kts | 216° |
| 2026-05-06 19:52 | 40.14409 | 33.01188 | 3244 ft | 146 kts | 217° |
| 2026-05-06 19:52 | 40.13601 | 33.00407 | 3133 ft | 134 kts | 213° |
| 2026-05-06 19:52 | 40.12982 | 32.99822 | 3125 ft | 83 kts | 216° |
| 2026-05-06 19:53 | 40.12665 | 32.99515 | 3122 ft | 42 kts | 216° |
| 2026-05-06 19:53 | 40.12437 | 32.99303 | 3119 ft | 37 kts | 214° |
| 2026-05-06 19:53 | 40.12230 | 32.99210 | 3118 ft | 31 kts | 183° |
| 2026-05-06 19:53 | 40.12154 | 32.99199 | 3117 ft | 1 kts | 190° |
| 2026-05-06 19:54 | 40.12140 | 32.99196 | 3117 ft | 3 kts | 190° |
| 2026-05-06 19:54 | 40.12110 | 32.99189 | 3117 ft | 6 kts | 190° |
| 2026-05-06 19:54 | 40.12060 | 32.99181 | 3116 ft | 9 kts | 186° |
| 2026-05-06 19:54 | 40.11988 | 32.99168 | 3115 ft | 12 kts | 195° |
| 2026-05-06 19:55 | 40.11910 | 32.99104 | 3114 ft | 15 kts | 217° |
| 2026-05-06 19:55 | 40.11822 | 32.99018 | 3113 ft | 17 kts | 216° |
| 2026-05-06 19:55 | 40.11722 | 32.98924 | 3113 ft | 15 kts | 217° |
| 2026-05-06 19:55 | 40.11652 | 32.98898 | 3113 ft | 9 kts | 145° |
| 2026-05-06 19:56 | 40.11610 | 32.98947 | 3113 ft | 9 kts | 164° |
| 2026-05-06 19:56 | 40.11555 | 32.98909 | 3113 ft | 10 kts | 221° |
| 2026-05-06 19:56 | 40.11496 | 32.98844 | 3113 ft | 12 kts | 218° |
| 2026-05-06 19:56 | 40.11434 | 32.98788 | 3113 ft | 8 kts | 195° |
| 2026-05-06 19:57 | 40.11400 | 32.98819 | 3113 ft | 4 kts | 128° |
| 2026-05-06 19:57 | 40.11386 | 32.98842 | 3113 ft | 2 kts | 126° |
| 2026-05-06 19:57 | 40.11385 | 32.98844 | 3113 ft | 0 kts | 126° |